Time;durP1;ratioP1;P1;durP2;ratioP2;P2;SDS_P1;SDS_P2;PMS_P1;PMS_P2;Temp;Humidity;BMP_temperature;BMP_pressure;BME280_temperature;BME280_humidity;BME280_pressure;Samples;Min_cycle;Max_cycle;Signal;HPM_P1;HPM_P2
2021/12/28 00:00:28;;;;;;;18.00;11.43;;;5.40;99.90;;;;;;5124663;27;20023;-75
2021/12/28 00:02:56;;;;;;;20.30;11.40;;;5.40;99.90;;;;;;5127107;27;20023;-75
2021/12/28 00:05:23;;;;;;;18.48;11.82;;;5.40;99.90;;;;;;5127859;27;20046;-75
2021/12/28 00:07:49;;;;;;;17.95;11.68;;;5.50;99.90;;;;;;5127560;27;20088;-75
2021/12/28 00:10:17;;;;;;;19.45;12.07;;;5.50;99.90;;;;;;5127868;28;20123;-75
2021/12/28 00:12:43;;;;;;;17.90;11.35;;;5.50;99.90;;;;;;5127844;27;20098;-75
2021/12/28 00:18:00;;;;;;;18.58;11.43;;;5.50;99.90;;;;;;5134027;27;20031;-75
2021/12/28 00:20:49;;;;;;;18.52;11.85;;;5.50;99.90;;;;;;5134322;27;20114;-75
2021/12/28 00:23:24;;;;;;;22.13;11.70;;;5.40;99.90;;;;;;5134671;27;20027;-75
2021/12/28 00:25:53;;;;;;;17.20;12.27;;;5.40;99.90;;;;;;5134384;27;20015;-75
2021/12/28 00:28:20;;;;;;;16.83;11.02;;;5.40;99.90;;;;;;5134306;27;20094;-75
2021/12/28 00:30:47;;;;;;;18.45;12.13;;;5.30;99.90;;;;;;5134689;27;20524;-75
2021/12/28 00:33:14;;;;;;;18.35;10.80;;;5.40;99.90;;;;;;5134522;27;20505;-75
2021/12/28 00:35:41;;;;;;;18.35;11.52;;;5.40;99.90;;;;;;5134269;27;20020;-75
2021/12/28 00:38:10;;;;;;;18.52;11.32;;;5.20;99.90;;;;;;5134459;27;20049;-75
2021/12/28 00:40:37;;;;;;;20.13;12.95;;;5.30;99.90;;;;;;5134278;27;20136;-75
2021/12/28 00:43:04;;;;;;;20.90;11.77;;;5.30;99.90;;;;;;5134116;27;20039;-75
2021/12/28 00:45:30;;;;;;;21.33;13.25;;;5.40;99.90;;;;;;5134303;27;20027;-75
2021/12/28 00:47:57;;;;;;;19.15;11.27;;;5.40;99.90;;;;;;5134210;27;20360;-75
2021/12/28 00:50:24;;;;;;;24.67;13.85;;;5.30;99.90;;;;;;5134105;27;20058;-75
2021/12/28 00:52:50;;;;;;;18.92;12.13;;;5.30;99.90;;;;;;5133724;27;20019;-75
2021/12/28 00:55:18;;;;;;;18.20;12.32;;;5.30;99.90;;;;;;5134103;27;20156;-75
2021/12/28 00:57:44;;;;;;;19.08;12.43;;;5.30;99.90;;;;;;5133231;27;20035;-75
2021/12/28 01:00:15;;;;;;;23.50;15.32;;;5.20;99.90;;;;;;5133724;27;20027;-75
2021/12/28 01:02:41;;;;;;;23.92;14.98;;;5.10;99.90;;;;;;5134010;27;20038;-75
2021/12/28 01:05:07;;;;;;;22.67;13.77;;;5.00;99.90;;;;;;5133893;27;20027;-75
2021/12/28 01:07:33;;;;;;;20.45;13.40;;;4.90;99.90;;;;;;5114621;27;20126;-75
2021/12/28 01:09:59;;;;;;;28.05;14.68;;;5.00;99.90;;;;;;5133320;27;20172;-75
2021/12/28 01:12:25;;;;;;;19.60;13.48;;;5.00;99.90;;;;;;5133541;27;20027;-75
2021/12/28 01:14:51;;;;;;;20.27;13.23;;;4.90;99.90;;;;;;5138954;27;20023;-75
2021/12/28 01:17:17;;;;;;;20.33;12.65;;;4.90;99.90;;;;;;5138876;27;20033;-75
2021/12/28 01:19:43;;;;;;;23.33;12.90;;;4.90;99.90;;;;;;5138113;27;20035;-75
2021/12/28 01:22:09;;;;;;;22.63;14.45;;;5.10;99.90;;;;;;5138565;27;20031;-75
2021/12/28 01:24:35;;;;;;;23.85;14.07;;;5.20;99.90;;;;;;5118007;28;20027;-75
2021/12/28 01:27:01;;;;;;;22.85;13.98;;;5.20;99.90;;;;;;5134679;27;20579;-75
2021/12/28 01:29:27;;;;;;;23.00;13.82;;;5.20;99.90;;;;;;5134504;27;20061;-75
2021/12/28 01:31:53;;;;;;;24.17;14.20;;;5.20;99.90;;;;;;5134540;27;20027;-75
2021/12/28 01:34:19;;;;;;;25.50;13.75;;;5.20;99.90;;;;;;5134561;27;20031;-75
2021/12/28 01:36:45;;;;;;;22.08;14.13;;;5.20;99.90;;;;;;5134616;27;20553;-75
2021/12/28 01:39:11;;;;;;;21.20;13.35;;;5.20;99.90;;;;;;5134579;27;20035;-75
2021/12/28 01:41:37;;;;;;;20.17;12.80;;;5.20;99.90;;;;;;5134625;27;20027;-75
2021/12/28 01:44:09;;;;;;;21.38;12.85;;;5.20;99.90;;;;;;5134200;27;20043;-75
2021/12/28 01:46:35;;;;;;;19.92;12.52;;;5.20;99.90;;;;;;5134584;27;20433;-75
2021/12/28 01:49:03;;;;;;;18.80;13.07;;;5.10;99.90;;;;;;5134205;27;20039;-75
2021/12/28 01:51:29;;;;;;;20.80;13.40;;;5.20;99.90;;;;;;5134359;27;20548;-75
2021/12/28 01:53:57;;;;;;;19.40;12.45;;;5.20;99.90;;;;;;5133780;27;20111;-75
2021/12/28 01:56:34;;;;;;;19.45;13.48;;;5.10;99.90;;;;;;5133967;27;20027;-75
2021/12/28 01:59:01;;;;;;;18.58;11.82;;;5.20;99.90;;;;;;5134215;27;20365;-75
2021/12/28 02:01:27;;;;;;;17.58;11.45;;;5.20;99.90;;;;;;5134432;27;20039;-75
2021/12/28 02:03:54;;;;;;;21.80;13.38;;;5.10;99.90;;;;;;5133469;27;20066;-75
2021/12/28 02:06:19;;;;;;;19.33;13.00;;;5.00;99.90;;;;;;5134241;27;20031;-75
2021/12/28 02:08:45;;;;;;;19.92;12.43;;;5.00;99.90;;;;;;5133732;27;20092;-75
2021/12/28 02:11:13;;;;;;;20.17;12.10;;;5.10;99.90;;;;;;5133376;27;20023;-75
2021/12/28 02:13:39;;;;;;;22.17;13.38;;;5.20;99.90;;;;;;5134187;27;20035;-75
2021/12/28 02:16:05;;;;;;;19.80;12.52;;;5.20;99.90;;;;;;5134145;27;20426;-75
2021/12/28 02:18:33;;;;;;;21.45;13.82;;;5.30;99.90;;;;;;5133819;27;20083;-75
2021/12/28 02:21:00;;;;;;;20.55;12.70;;;5.20;99.90;;;;;;5133933;27;20106;-75
2021/12/28 02:23:25;;;;;;;19.90;12.13;;;5.10;99.90;;;;;;5133510;27;20024;-75
2021/12/28 02:25:52;;;;;;;19.17;12.98;;;5.20;99.90;;;;;;5134004;27;20023;-75
2021/12/28 02:28:18;;;;;;;20.92;12.43;;;5.20;99.90;;;;;;5133819;27;20028;-75
2021/12/28 02:30:47;;;;;;;20.35;12.13;;;5.20;99.90;;;;;;5133926;27;20054;-75
2021/12/28 02:33:13;;;;;;;20.23;12.30;;;5.20;99.90;;;;;;5133644;27;20541;-75
2021/12/28 02:35:41;;;;;;;19.92;12.52;;;5.20;99.90;;;;;;5133498;27;20392;-75
2021/12/28 02:38:09;;;;;;;20.50;12.13;;;5.10;99.90;;;;;;5132258;27;20027;-75
2021/12/28 02:40:38;;;;;;;20.13;12.65;;;5.10;99.90;;;;;;5133633;27;20385;-75
2021/12/28 02:43:05;;;;;;;19.13;11.88;;;5.10;99.90;;;;;;5131786;27;20035;-75
2021/12/28 02:45:35;;;;;;;19.10;13.23;;;5.10;99.90;;;;;;5132854;27;20031;-75
2021/12/28 02:48:01;;;;;;;18.95;12.50;;;5.10;99.90;;;;;;5132760;27;20035;-75
2021/12/28 02:50:31;;;;;;;17.80;11.63;;;5.10;99.90;;;;;;5133528;27;20023;-75
2021/12/28 02:52:58;;;;;;;18.35;11.20;;;5.10;99.90;;;;;;5133013;27;20031;-75
2021/12/28 02:55:27;;;;;;;17.60;12.07;;;5.20;99.90;;;;;;5132848;27;20035;-75
2021/12/28 02:58:02;;;;;;;16.42;11.38;;;5.20;99.90;;;;;;5132797;27;20112;-75
2021/12/28 03:00:48;;;;;;;19.23;11.85;;;5.10;99.90;;;;;;5133228;27;20035;-75
2021/12/28 03:03:20;;;;;;;18.30;11.82;;;5.10;99.90;;;;;;5127153;27;20046;-75
2021/12/28 03:05:48;;;;;;;18.38;11.00;;;5.10;99.90;;;;;;5132657;27;20031;-75
2021/12/28 03:08:17;;;;;;;21.48;12.95;;;5.00;99.90;;;;;;5132684;27;20051;-75
2021/12/28 03:10:45;;;;;;;20.45;14.07;;;4.90;99.90;;;;;;5132448;27;20031;-75
2021/12/28 03:13:20;;;;;;;19.52;12.13;;;4.80;99.90;;;;;;5114806;27;20442;-74
2021/12/28 03:15:46;;;;;;;20.60;13.13;;;4.80;99.90;;;;;;5132308;27;20037;-75
2021/12/28 03:18:12;;;;;;;21.42;12.77;;;4.90;99.90;;;;;;5133124;27;20527;-75
2021/12/28 03:20:38;;;;;;;18.67;13.30;;;5.00;99.90;;;;;;5132607;27;20027;-75
2021/12/28 03:23:04;;;;;;;23.70;14.73;;;4.90;99.90;;;;;;5132754;27;20579;-75
2021/12/28 03:25:31;;;;;;;24.15;14.00;;;4.90;99.90;;;;;;5132038;27;20110;-75
2021/12/28 03:27:58;;;;;;;24.95;14.05;;;4.80;99.90;;;;;;5132921;27;20027;-75
2021/12/28 03:30:23;;;;;;;21.85;13.38;;;4.70;99.90;;;;;;5132290;27;20735;-74
2021/12/28 03:32:51;;;;;;;22.33;13.85;;;4.70;99.90;;;;;;5133321;27;20031;-75
2021/12/28 03:35:17;;;;;;;18.48;12.65;;;4.80;99.90;;;;;;5132381;27;20350;-75
2021/12/28 03:37:44;;;;;;;21.73;14.07;;;4.90;99.90;;;;;;5132838;27;20042;-75
2021/12/28 03:40:13;;;;;;;21.60;13.07;;;4.90;99.90;;;;;;5132143;27;20114;-75
2021/12/28 03:42:39;;;;;;;20.63;11.75;;;4.80;99.90;;;;;;5132660;27;20031;-75
2021/12/28 03:45:07;;;;;;;18.00;11.45;;;4.90;99.90;;;;;;5132005;27;20107;-75
2021/12/28 03:47:33;;;;;;;17.80;12.20;;;4.90;99.90;;;;;;5132340;27;20030;-75
2021/12/28 03:49:59;;;;;;;20.52;12.63;;;5.00;99.90;;;;;;5131714;27;20023;-75
2021/12/28 03:52:25;;;;;;;19.85;12.45;;;5.10;99.90;;;;;;5132509;27;20688;-75
2021/12/28 03:54:50;;;;;;;18.50;11.75;;;5.20;99.90;;;;;;5131379;27;20019;-75
2021/12/28 03:57:16;;;;;;;16.30;11.60;;;5.10;99.90;;;;;;5113518;27;20548;-75
2021/12/28 03:59:42;;;;;;;19.15;13.02;;;5.10;99.90;;;;;;5132594;27;20027;-75
2021/12/28 04:02:08;;;;;;;22.48;12.18;;;5.10;99.90;;;;;;5128284;27;20455;-74
2021/12/28 04:04:34;;;;;;;23.05;12.50;;;4.90;99.90;;;;;;5123608;27;20031;-74
2021/12/28 04:07:04;;;;;;;20.65;12.18;;;4.90;99.90;;;;;;5123575;27;20023;-74
2021/12/28 04:12:32;;;;;;;19.75;11.57;;;5.10;99.90;;;;;;5019890;28;20551;-74
2021/12/28 04:14:58;;;;;;;15.23;11.30;;;5.00;99.90;;;;;;5103234;28;20031;-74
2021/12/28 04:17:26;;;;;;;20.08;12.07;;;4.90;99.90;;;;;;5124077;28;20034;-74
2021/12/28 04:19:52;;;;;;;15.43;10.10;;;5.00;99.90;;;;;;5124660;28;20030;-74
2021/12/28 04:22:18;;;;;;;15.20;10.75;;;5.00;99.90;;;;;;5125001;28;20478;-74
2021/12/28 04:24:43;;;;;;;18.67;11.55;;;5.00;99.90;;;;;;5127043;28;20027;-74
2021/12/28 04:27:09;;;;;;;19.92;11.27;;;4.90;99.90;;;;;;5127180;28;20034;-74
2021/12/28 04:29:35;;;;;;;19.15;11.32;;;4.90;99.90;;;;;;5127460;28;20030;-74
2021/12/28 04:32:01;;;;;;;19.55;11.23;;;4.80;99.90;;;;;;5126699;28;20448;-74
2021/12/28 04:34:27;;;;;;;17.48;11.23;;;4.80;99.90;;;;;;5127733;28;20027;-74
2021/12/28 04:36:52;;;;;;;18.88;10.95;;;4.70;99.90;;;;;;5124836;28;20691;-74
2021/12/28 04:39:18;;;;;;;21.45;11.40;;;4.60;99.90;;;;;;5124103;28;20045;-74
2021/12/28 04:41:44;;;;;;;19.05;12.00;;;4.60;99.90;;;;;;5104784;28;20031;-74
2021/12/28 04:44:13;;;;;;;18.25;12.57;;;4.60;99.90;;;;;;5123922;28;20054;-74
2021/12/28 04:46:39;;;;;;;19.25;11.45;;;4.70;99.90;;;;;;5125059;28;20110;-74
2021/12/28 04:49:05;;;;;;;20.00;11.43;;;4.70;99.90;;;;;;5127267;28;20031;-74
2021/12/28 04:51:32;;;;;;;20.13;11.02;;;4.70;99.90;;;;;;5127327;28;20019;-74
2021/12/28 04:54:00;;;;;;;16.83;11.90;;;4.70;99.90;;;;;;5126942;28;20031;-74
2021/12/28 04:56:26;;;;;;;20.52;11.35;;;4.80;99.90;;;;;;5125122;28;20027;-74
2021/12/28 04:58:51;;;;;;;15.68;10.30;;;4.80;99.90;;;;;;5124997;28;20142;-74
2021/12/28 05:01:17;;;;;;;18.42;11.18;;;4.70;99.90;;;;;;5126369;27;20027;-74
2021/12/28 05:03:43;;;;;;;15.70;11.05;;;4.60;99.90;;;;;;5127842;27;20087;-74
2021/12/28 05:06:08;;;;;;;16.63;10.60;;;4.60;99.90;;;;;;5127457;27;20369;-74
2021/12/28 05:08:34;;;;;;;18.30;9.90;;;4.70;99.90;;;;;;5127209;27;20054;-74
2021/12/28 05:11:00;;;;;;;15.95;10.43;;;4.70;99.90;;;;;;5127313;27;20055;-74
2021/12/28 05:13:26;;;;;;;17.45;10.57;;;4.70;99.90;;;;;;5127139;27;20053;-74
2021/12/28 05:15:53;;;;;;;17.15;10.73;;;4.80;99.90;;;;;;5127523;27;20023;-74
2021/12/28 05:18:20;;;;;;;18.35;11.68;;;4.90;99.90;;;;;;5127773;27;20508;-74
2021/12/28 05:20:47;;;;;;;17.13;12.05;;;4.70;99.90;;;;;;5127471;27;20488;-74
2021/12/28 05:23:13;;;;;;;16.08;11.23;;;4.40;99.90;;;;;;5127454;27;20092;-74
2021/12/28 05:25:39;;;;;;;19.58;11.05;;;4.30;99.90;;;;;;5127059;27;20050;-74
2021/12/28 05:28:06;;;;;;;19.70;12.15;;;4.30;99.90;;;;;;5127587;27;20023;-74
2021/12/28 05:30:33;;;;;;;15.82;10.23;;;4.30;99.90;;;;;;5127180;27;20030;-74
2021/12/28 05:32:59;;;;;;;22.92;11.60;;;4.40;99.90;;;;;;5127389;27;20023;-74
2021/12/28 05:35:25;;;;;;;20.02;11.38;;;4.50;99.90;;;;;;5126582;27;20023;-74
2021/12/28 05:37:51;;;;;;;15.70;10.68;;;4.70;99.90;;;;;;5127170;27;20106;-74
2021/12/28 05:40:17;;;;;;;21.13;13.25;;;4.70;99.90;;;;;;5126895;27;20576;-74
2021/12/28 05:42:44;;;;;;;18.63;11.43;;;4.50;99.90;;;;;;5127299;27;20042;-74
2021/12/28 05:45:10;;;;;;;20.30;11.55;;;4.40;99.90;;;;;;5126213;27;20538;-74
2021/12/28 05:47:37;;;;;;;16.55;12.02;;;4.40;99.90;;;;;;5127095;27;20991;-74
2021/12/28 05:50:04;;;;;;;18.33;11.88;;;4.50;99.90;;;;;;5126356;27;20743;-74
2021/12/28 05:52:30;;;;;;;19.20;12.02;;;4.40;99.90;;;;;;5127341;27;20140;-74
2021/12/28 05:54:56;;;;;;;18.67;11.18;;;4.40;99.90;;;;;;5126054;27;20058;-74
2021/12/28 05:57:22;;;;;;;14.43;11.30;;;4.40;99.90;;;;;;5126494;27;20106;-74
2021/12/28 05:59:47;;;;;;;21.65;11.30;;;4.50;99.90;;;;;;5126600;27;20023;-74
2021/12/28 06:02:13;;;;;;;16.48;10.73;;;4.50;99.90;;;;;;5126277;27;20122;-74
2021/12/28 06:04:39;;;;;;;16.20;11.13;;;4.50;99.90;;;;;;5125702;27;20420;-74
2021/12/28 06:07:04;;;;;;;15.23;9.48;;;4.50;99.90;;;;;;5126058;27;20430;-74
2021/12/28 06:09:30;;;;;;;16.80;10.90;;;4.50;99.90;;;;;;5126902;27;20069;-74
2021/12/28 06:11:56;;;;;;;19.27;10.57;;;4.50;99.90;;;;;;5126207;27;20023;-74
2021/12/28 06:14:22;;;;;;;17.63;11.35;;;4.50;99.90;;;;;;5126869;27;20031;-74
2021/12/28 06:16:48;;;;;;;17.08;11.20;;;4.50;99.90;;;;;;5125758;27;20031;-74
2021/12/28 06:19:13;;;;;;;15.55;10.23;;;4.50;99.90;;;;;;5126561;27;20028;-74
2021/12/28 06:21:39;;;;;;;17.27;11.23;;;4.40;99.90;;;;;;5126492;27;20088;-74
2021/12/28 06:24:06;;;;;;;16.98;9.93;;;4.40;99.90;;;;;;5125965;27;20101;-74
2021/12/28 06:26:33;;;;;;;16.60;10.50;;;4.50;99.90;;;;;;5125818;27;20031;-74
2021/12/28 06:29:00;;;;;;;16.90;10.68;;;4.30;99.90;;;;;;5126170;27;20080;-74
2021/12/28 06:31:29;;;;;;;20.42;11.80;;;4.40;99.90;;;;;;5125120;27;20035;-74
2021/12/28 06:33:56;;;;;;;16.10;9.45;;;4.60;99.90;;;;;;5126086;27;20019;-74
2021/12/28 06:36:22;;;;;;;14.23;10.25;;;4.60;99.90;;;;;;5124989;27;20038;-74
2021/12/28 06:38:48;;;;;;;16.88;10.02;;;4.60;99.90;;;;;;5126471;27;20110;-74
2021/12/28 06:41:14;;;;;;;16.80;9.88;;;4.60;99.90;;;;;;5125110;27;20111;-73
2021/12/28 06:43:39;;;;;;;18.80;10.82;;;4.70;99.90;;;;;;5125162;27;20027;-74
2021/12/28 06:46:05;;;;;;;14.80;9.98;;;4.70;99.90;;;;;;5123019;27;20028;-74
2021/12/28 06:48:31;;;;;;;17.17;9.60;;;4.70;99.90;;;;;;5116638;27;20388;-74
2021/12/28 06:50:57;;;;;;;15.25;10.15;;;4.70;99.90;;;;;;5125652;27;20030;-74
2021/12/28 06:53:22;;;;;;;16.20;10.32;;;4.70;99.90;;;;;;5124697;27;20026;-74
2021/12/28 06:55:48;;;;;;;13.27;9.02;;;4.70;99.90;;;;;;5125384;27;20124;-74
2021/12/28 06:58:14;;;;;;;18.67;10.05;;;4.70;99.90;;;;;;5125093;27;20107;-74
2021/12/28 07:00:40;;;;;;;15.48;9.70;;;4.70;99.90;;;;;;5125424;27;20579;-74
2021/12/28 07:03:06;;;;;;;16.40;10.20;;;4.60;99.90;;;;;;5125511;27;20031;-74
2021/12/28 07:05:32;;;;;;;15.35;9.93;;;4.50;99.90;;;;;;5125721;27;20019;-73
2021/12/28 07:07:58;;;;;;;17.45;10.48;;;4.30;99.90;;;;;;5124943;27;20104;-74
2021/12/28 07:10:24;;;;;;;17.92;10.27;;;4.20;99.90;;;;;;5125162;27;20051;-74
2021/12/28 07:12:50;;;;;;;16.67;10.75;;;4.30;99.90;;;;;;5122464;27;20032;-74
2021/12/28 07:15:18;;;;;;;18.67;10.98;;;4.40;99.90;;;;;;5125733;27;20068;-74
2021/12/28 07:17:44;;;;;;;18.30;10.02;;;4.40;99.90;;;;;;5123014;27;20045;-74
2021/12/28 07:20:10;;;;;;;17.98;9.95;;;4.40;99.90;;;;;;5125813;27;20380;-74
2021/12/28 07:22:36;;;;;;;18.55;9.80;;;4.40;99.90;;;;;;5124812;27;20092;-74
2021/12/28 07:25:03;;;;;;;16.38;10.85;;;4.50;99.90;;;;;;5122364;27;20019;-74
2021/12/28 07:27:29;;;;;;;16.77;10.30;;;4.50;99.90;;;;;;5119457;27;20034;-74
2021/12/28 07:30:27;;;;;;;13.55;8.63;;;4.50;99.90;;;;;;5125142;27;20015;-74
2021/12/28 07:32:53;;;;;;;18.67;10.75;;;4.40;99.90;;;;;;5123480;27;20118;-74
2021/12/28 07:35:20;;;;;;;14.88;9.40;;;4.40;99.90;;;;;;5125024;27;20049;-74
2021/12/28 07:37:46;;;;;;;16.95;9.48;;;4.50;99.90;;;;;;5124925;27;20035;-73
2021/12/28 07:40:13;;;;;;;20.65;11.32;;;4.50;99.90;;;;;;5124846;27;20059;-74
2021/12/28 07:42:40;;;;;;;61.28;29.35;;;4.60;99.90;;;;;;5124675;27;20062;-74
2021/12/28 07:45:09;;;;;;;35.75;19.77;;;4.60;99.90;;;;;;5105717;27;20100;-74
2021/12/28 07:47:36;;;;;;;27.30;16.67;;;4.60;99.90;;;;;;5124434;27;20089;-74
2021/12/28 07:50:04;;;;;;;64.85;33.08;;;4.50;99.90;;;;;;5124479;27;20023;-74
2021/12/28 07:52:30;;;;;;;23.23;13.85;;;4.60;99.90;;;;;;5124798;27;20031;-74
2021/12/28 07:54:56;;;;;;;18.00;10.65;;;4.60;99.90;;;;;;5121443;27;20034;-74
2021/12/28 07:57:21;;;;;;;17.58;10.18;;;4.60;99.90;;;;;;5123743;27;20190;-75
2021/12/28 07:59:48;;;;;;;18.13;11.20;;;4.60;99.90;;;;;;5123955;27;20106;-74
2021/12/28 08:02:13;;;;;;;19.30;10.48;;;4.60;99.90;;;;;;5121956;27;20042;-74
2021/12/28 08:04:39;;;;;;;15.95;10.07;;;4.70;99.90;;;;;;5124559;27;20027;-73
2021/12/28 08:07:05;;;;;;;15.70;9.70;;;4.70;99.90;;;;;;5124104;27;20434;-74
2021/12/28 08:09:30;;;;;;;18.10;9.27;;;4.60;99.90;;;;;;5124970;27;20051;-74
2021/12/28 08:11:56;;;;;;;15.15;9.10;;;4.70;99.90;;;;;;5124297;27;20104;-74
2021/12/28 08:14:22;;;;;;;16.23;10.05;;;4.70;99.90;;;;;;5124796;28;20031;-73
2021/12/28 08:16:48;;;;;;;15.10;9.38;;;4.70;99.90;;;;;;5124639;28;20031;-74
2021/12/28 08:19:14;;;;;;;15.77;9.18;;;4.80;99.90;;;;;;5124957;28;20666;-74
2021/12/28 08:21:40;;;;;;;15.57;9.77;;;4.80;99.90;;;;;;5125064;28;20133;-73
2021/12/28 08:24:06;;;;;;;12.73;9.23;;;4.70;99.90;;;;;;5124853;28;20102;-74
2021/12/28 08:26:32;;;;;;;12.68;8.15;;;4.70;99.90;;;;;;5123719;28;20038;-73
2021/12/28 08:28:58;;;;;;;16.35;9.80;;;4.70;99.90;;;;;;5125313;28;20027;-75
2021/12/28 08:31:23;;;;;;;14.88;9.50;;;4.80;99.90;;;;;;5114675;28;20031;-73
2021/12/28 08:33:49;;;;;;;12.95;8.48;;;5.00;99.90;;;;;;5109619;27;20054;-74
2021/12/28 08:36:15;;;;;;;14.07;9.15;;;5.00;99.90;;;;;;5127926;27;20035;-74
2021/12/28 08:38:43;;;;;;;14.10;8.93;;;5.10;99.90;;;;;;5129017;27;20469;-77
2021/12/28 08:41:09;;;;;;;13.65;8.93;;;5.10;99.90;;;;;;5127966;27;20599;-73
2021/12/28 08:43:35;;;;;;;16.65;9.82;;;5.10;99.90;;;;;;5128733;27;20499;-73
2021/12/28 08:46:01;;;;;;;15.98;8.68;;;5.00;99.90;;;;;;5128299;27;20023;-72
2021/12/28 08:48:26;;;;;;;23.55;11.88;;;5.00;99.90;;;;;;5128897;27;20102;-73
2021/12/28 08:50:52;;;;;;;16.80;10.85;;;5.00;99.90;;;;;;5128486;27;20031;-72
2021/12/28 08:53:18;;;;;;;17.45;9.95;;;5.10;99.90;;;;;;5117732;27;20027;-73
2021/12/28 08:55:44;;;;;;;17.98;11.20;;;5.10;99.90;;;;;;5107317;28;20035;-72
2021/12/28 08:58:10;;;;;;;17.80;10.23;;;5.10;99.90;;;;;;5108271;28;20028;-73
2021/12/28 09:00:37;;;;;;;19.83;11.80;;;5.00;99.90;;;;;;5107872;28;20368;-73
2021/12/28 09:03:03;;;;;;;16.30;10.45;;;5.10;99.90;;;;;;5121549;27;20032;-73
2021/12/28 09:05:29;;;;;;;16.40;10.45;;;5.80;99.90;;;;;;5128281;27;20035;-73
2021/12/28 09:07:56;;;;;;;18.80;11.35;;;5.60;99.90;;;;;;5127996;27;20542;-72
2021/12/28 09:10:25;;;;;;;16.55;10.38;;;5.40;99.90;;;;;;5127587;27;20066;-73
2021/12/28 09:12:52;;;;;;;21.15;11.77;;;5.30;99.90;;;;;;5127199;27;20398;-73
2021/12/28 09:15:18;;;;;;;17.33;10.35;;;5.10;99.90;;;;;;5127749;27;20035;-72
2021/12/28 09:17:44;;;;;;;21.27;11.65;;;5.00;99.90;;;;;;5127760;27;20053;-72
2021/12/28 09:20:14;;;;;;;17.17;11.25;;;5.00;99.90;;;;;;5128009;27;20027;-72
2021/12/28 09:22:42;;;;;;;15.77;11.00;;;5.10;99.90;;;;;;5127662;27;20042;-72
2021/12/28 09:25:08;;;;;;;16.70;10.23;;;5.10;99.90;;;;;;5127606;27;20020;-73
2021/12/28 09:27:34;;;;;;;21.13;12.20;;;5.20;99.90;;;;;;5127901;27;20027;-73
2021/12/28 09:30:00;;;;;;;19.40;11.82;;;5.30;99.90;;;;;;5127323;27;20726;-73
2021/12/28 09:32:25;;;;;;;22.40;15.10;;;5.40;99.90;;;;;;5127643;27;20051;-72
2021/12/28 09:34:55;;;;;;;19.88;14.82;;;5.50;99.90;;;;;;5126681;27;20031;-72
2021/12/28 09:37:21;;;;;;;19.27;12.13;;;5.60;99.90;;;;;;5127803;27;20023;-72
2021/12/28 09:39:48;;;;;;;16.33;11.60;;;5.70;99.90;;;;;;5127599;27;20076;-72
2021/12/28 09:42:14;;;;;;;19.92;13.40;;;5.80;99.90;;;;;;5127314;27;20046;-72
2021/12/28 09:44:39;;;;;;;17.70;12.75;;;5.90;99.90;;;;;;5127087;27;20035;-72
2021/12/28 09:47:07;;;;;;;20.92;13.30;;;5.80;99.90;;;;;;5126690;27;20032;-72
2021/12/28 09:49:33;;;;;;;19.83;11.95;;;5.70;99.90;;;;;;5127167;27;20104;-72
2021/12/28 09:52:00;;;;;;;19.02;11.32;;;5.60;99.90;;;;;;5127682;27;20103;-72
2021/12/28 09:54:28;;;;;;;19.67;13.02;;;5.60;99.90;;;;;;5126856;27;20377;-73
2021/12/28 09:56:56;;;;;;;22.23;12.02;;;5.60;99.90;;;;;;5127107;27;20560;-72
2021/12/28 09:59:23;;;;;;;23.00;13.60;;;5.60;99.90;;;;;;5127186;27;20627;-72
2021/12/28 10:01:50;;;;;;;21.92;12.68;;;5.60;99.90;;;;;;5126952;27;20114;-72
2021/12/28 10:04:18;;;;;;;21.33;11.68;;;5.70;99.90;;;;;;5126186;27;20027;-73
2021/12/28 10:06:43;;;;;;;17.55;11.85;;;5.70;99.90;;;;;;5126584;27;20035;-73
2021/12/28 10:09:15;;;;;;;16.45;11.57;;;5.80;99.90;;;;;;5126672;27;20124;-72
2021/12/28 10:11:53;;;;;;;21.52;12.20;;;5.70;99.90;;;;;;5126667;27;20506;-72
2021/12/28 10:14:23;;;;;;;25.00;12.57;;;5.60;99.90;;;;;;5126061;27;20031;-72
2021/12/28 10:16:51;;;;;;;16.80;11.20;;;5.50;99.90;;;;;;5126565;27;20564;-73
2021/12/28 10:19:41;;;;;;;17.15;11.35;;;6.20;99.90;;;;;;5126265;27;20058;-72
2021/12/28 10:22:21;;;;;;;20.33;10.35;;;5.90;99.90;;;;;;5126347;27;20035;-72
2021/12/28 10:24:49;;;;;;;14.68;9.55;;;5.80;99.90;;;;;;5125937;27;20055;-72
2021/12/28 10:27:17;;;;;;;17.30;10.43;;;5.70;99.90;;;;;;5126711;27;20037;-72
2021/12/28 10:29:43;;;;;;;16.60;9.45;;;5.70;99.90;;;;;;5126812;27;20027;-72
2021/12/28 10:32:26;;;;;;;18.63;10.45;;;5.60;99.90;;;;;;5126318;27;20027;-72
2021/12/28 10:35:02;;;;;;;16.90;9.35;;;5.60;99.90;;;;;;5126133;27;20113;-72
2021/12/28 10:37:31;;;;;;;17.10;10.02;;;5.60;99.90;;;;;;5126946;27;20027;-73
2021/12/28 10:39:59;;;;;;;16.42;10.90;;;5.50;99.90;;;;;;5126540;27;20030;-72
2021/12/28 10:42:45;;;;;;;19.08;12.32;;;5.50;99.90;;;;;;5126408;27;20043;-73
2021/12/28 10:45:14;;;;;;;16.95;10.57;;;5.80;99.90;;;;;;5124848;27;20023;-72
2021/12/28 10:47:40;;;;;;;16.25;10.57;;;5.80;99.90;;;;;;5125029;27;20023;-73
2021/12/28 10:50:40;;;;;;;19.13;12.23;;;5.90;99.90;;;;;;5125914;27;20031;-72
2021/12/28 10:53:23;;;;;;;17.98;11.50;;;5.90;99.90;;;;;;5125786;27;20111;-72
2021/12/28 10:55:57;;;;;;;17.13;10.68;;;6.10;99.90;;;;;;5125275;27;20023;-73
2021/12/28 10:58:32;;;;;;;17.65;11.00;;;6.20;99.90;;;;;;5124784;27;20023;-72
2021/12/28 11:01:06;;;;;;;17.08;10.30;;;6.10;99.90;;;;;;5125757;27;20035;-72
2021/12/28 11:03:34;;;;;;;17.40;10.13;;;6.00;99.90;;;;;;5125977;27;20088;-72
2021/12/28 11:06:05;;;;;;;18.60;11.55;;;6.00;99.90;;;;;;5125646;27;20023;-72
2021/12/28 11:08:31;;;;;;;16.75;10.85;;;6.10;99.90;;;;;;5126562;27;20043;-73
2021/12/28 11:11:01;;;;;;;20.05;11.25;;;6.20;99.90;;;;;;5110223;27;20619;-73
2021/12/28 11:13:30;;;;;;;18.15;10.95;;;6.30;99.90;;;;;;5128775;27;20038;-72
2021/12/28 11:15:58;;;;;;;15.32;10.15;;;6.30;99.90;;;;;;5128737;27;20023;-73
2021/12/28 11:18:31;;;;;;;19.98;10.60;;;6.40;99.90;;;;;;5128454;27;20039;-74
2021/12/28 11:20:59;;;;;;;15.05;10.85;;;6.30;99.90;;;;;;5128471;27;20388;-72
2021/12/28 11:23:29;;;;;;;15.93;11.55;;;6.20;99.90;;;;;;5128644;27;20031;-72
2021/12/28 11:26:17;;;;;;;17.50;11.80;;;6.30;99.90;;;;;;5128449;27;20019;-72
2021/12/28 11:28:53;;;;;;;20.27;12.63;;;6.30;99.90;;;;;;5127731;27;20030;-73
2021/12/28 11:31:25;;;;;;;20.60;12.63;;;6.50;99.90;;;;;;5128324;27;20027;-72
2021/12/28 11:33:53;;;;;;;20.90;11.95;;;6.60;99.90;;;;;;5128384;27;20023;-72
2021/12/28 11:36:22;;;;;;;20.88;12.20;;;6.70;99.90;;;;;;5128235;27;20030;-72
2021/12/28 11:38:48;;;;;;;21.90;13.18;;;6.80;99.90;;;;;;5109333;27;20054;-72
2021/12/28 11:41:15;;;;;;;20.40;11.55;;;6.80;99.90;;;;;;5128336;27;20429;-73
2021/12/28 11:43:43;;;;;;;15.63;10.32;;;6.80;99.90;;;;;;5128094;27;20119;-72
2021/12/28 11:46:09;;;;;;;16.95;10.88;;;6.70;99.90;;;;;;5128183;27;20019;-72
2021/12/28 11:48:36;;;;;;;15.48;10.10;;;6.70;99.90;;;;;;5127470;27;20026;-73
2021/12/28 11:51:02;;;;;;;16.75;10.07;;;6.60;99.90;;;;;;5128469;27;20023;-72
2021/12/28 11:53:29;;;;;;;14.70;9.27;;;6.50;99.90;;;;;;5128167;27;20075;-72
2021/12/28 11:55:58;;;;;;;15.13;9.55;;;6.40;99.90;;;;;;5127966;27;20099;-72
2021/12/28 11:58:50;;;;;;;14.43;10.10;;;6.40;99.90;;;;;;5128073;27;20050;-73
2021/12/28 12:01:55;;;;;;;16.05;9.57;;;6.40;99.90;;;;;;5127977;27;20020;-72
2021/12/28 12:04:32;;;;;;;15.98;9.38;;;6.40;99.90;;;;;;5126382;27;20080;-74
2021/12/28 12:07:10;;;;;;;20.63;11.63;;;6.40;99.90;;;;;;5124680;27;20107;-72
2021/12/28 12:09:54;;;;;;;15.27;9.82;;;6.40;99.90;;;;;;5125278;27;20362;-73
2021/12/28 12:12:35;;;;;;;13.75;9.55;;;6.40;99.90;;;;;;5128028;27;20469;-73
2021/12/28 12:15:03;;;;;;;18.58;10.32;;;6.40;99.90;;;;;;5127799;27;20318;-72
2021/12/28 12:17:37;;;;;;;15.90;9.85;;;6.50;99.90;;;;;;5127926;28;20495;-72
2021/12/28 12:20:22;;;;;;;18.88;11.00;;;6.30;99.90;;;;;;5127318;28;20106;-72
2021/12/28 12:22:52;;;;;;;15.90;9.75;;;6.30;99.90;;;;;;5127863;28;20035;-72
2021/12/28 12:25:29;;;;;;;21.63;9.88;;;6.40;99.90;;;;;;5127729;28;20038;-73
2021/12/28 12:28:00;;;;;;;17.55;10.85;;;6.50;99.90;;;;;;5127654;28;20027;-72
2021/12/28 12:30:27;;;;;;;22.00;9.68;;;6.50;99.90;;;;;;5127400;28;20019;-72
2021/12/28 12:33:02;;;;;;;18.00;11.32;;;6.50;99.90;;;;;;5127872;28;20121;-72
2021/12/28 12:35:35;;;;;;;;;;;6.40;99.90;;;;;;5128099;28;20553;-72
2021/12/28 12:38:24;;;;;;;18.80;10.40;;;6.50;99.90;;;;;;5127664;28;19911;-72
2021/12/28 12:40:58;;;;;;;16.08;10.35;;;6.50;99.90;;;;;;5126852;28;20065;-72
2021/12/28 12:43:26;;;;;;;21.67;11.20;;;6.50;99.90;;;;;;5127187;28;20076;-73
2021/12/28 12:45:56;;;;;;;20.85;11.52;;;6.60;99.90;;;;;;5127374;28;20114;-72
2021/12/28 12:48:31;;;;;;;19.85;11.05;;;6.70;99.90;;;;;;5127677;28;20060;-72